Mount Baldy, California
Current Conditions -  °F | °C
As of 12:53 PM on Thursday 27 Nov 2014 (Local Time) from KONT Reporting Station
Broken Clouds Broken Clouds  
Wind Chill: 86°   Ceiling: 25000
Heat Index: 86°   Visibility: 10mi
Dew Point: 17°   Wind: 3mph
Humidity: 8%   Direction: 200°SSW
Pressure: 30.05"   Gusts: NA
Location:  34.24°N, 117.66°W
Report Text: KONT 272053Z 20003KT 10SM BKN250 30/M08 A3005 RMK AO2 SLP165 T03001083 58029
Loading
Personal Weather Stations






























Interactive Weather Map New forecast layout! Learn more

10-Day Weather Forecast

Advertisements
Track Severe Weather on mobile